sensor_id;sensor_type;location;lat;lon;timestamp;temperature;humidity
42421;DHT22;28063;48.140;11.588;2022-08-19T00:02:16;18.80;99.90
42421;DHT22;28063;48.140;11.588;2022-08-19T00:04:42;18.80;99.90
42421;DHT22;28063;48.140;11.588;2022-08-19T00:07:22;18.80;99.90
42421;DHT22;28063;48.140;11.588;2022-08-19T00:09:50;18.80;99.90
42421;DHT22;28063;48.140;11.588;2022-08-19T00:12:16;18.80;99.90
42421;DHT22;28063;48.140;11.588;2022-08-19T00:14:42;18.80;99.90
42421;DHT22;28063;48.140;11.588;2022-08-19T00:17:09;18.80;99.90
42421;DHT22;28063;48.140;11.588;2022-08-19T00:19:36;18.80;99.90
42421;DHT22;28063;48.140;11.588;2022-08-19T00:22:04;18.80;99.90
42421;DHT22;28063;48.140;11.588;2022-08-19T00:24:40;18.80;99.90
42421;DHT22;28063;48.140;11.588;2022-08-19T00:27:33;18.80;99.90
42421;DHT22;28063;48.140;11.588;2022-08-19T00:36:41;18.70;99.90
42421;DHT22;28063;48.140;11.588;2022-08-19T00:39:51;18.70;99.90
42421;DHT22;28063;48.140;11.588;2022-08-19T00:42:25;18.70;99.90
42421;DHT22;28063;48.140;11.588;2022-08-19T00:44:54;18.70;99.90
42421;DHT22;28063;48.140;11.588;2022-08-19T00:47:25;18.80;99.90
42421;DHT22;28063;48.140;11.588;2022-08-19T00:49:57;18.80;99.90
42421;DHT22;28063;48.140;11.588;2022-08-19T00:52:28;18.70;99.90
42421;DHT22;28063;48.140;11.588;2022-08-19T00:54:58;18.70;99.90
42421;DHT22;28063;48.140;11.588;2022-08-19T00:57:36;18.70;99.90
42421;DHT22;28063;48.140;11.588;2022-08-19T01:00:17;18.70;99.90
42421;DHT22;28063;48.140;11.588;2022-08-19T01:02:52;18.70;99.90
42421;DHT22;28063;48.140;11.588;2022-08-19T01:05:22;18.60;99.90
42421;DHT22;28063;48.140;11.588;2022-08-19T01:11:23;18.60;99.90
42421;DHT22;28063;48.140;11.588;2022-08-19T01:14:18;18.60;99.90
42421;DHT22;28063;48.140;11.588;2022-08-19T01:16:55;18.40;99.90
42421;DHT22;28063;48.140;11.588;2022-08-19T01:19:59;18.40;99.90
42421;DHT22;28063;48.140;11.588;2022-08-19T01:22:32;18.40;99.90
42421;DHT22;28063;48.140;11.588;2022-08-19T01:25:17;18.40;99.90
42421;DHT22;28063;48.140;11.588;2022-08-19T01:27:49;18.50;99.90
42421;DHT22;28063;48.140;11.588;2022-08-19T01:33:34;18.60;99.90
42421;DHT22;28063;48.140;11.588;2022-08-19T01:36:30;18.60;99.90
42421;DHT22;28063;48.140;11.588;2022-08-19T01:39:42;18.60;99.90
42421;DHT22;28063;48.140;11.588;2022-08-19T01:42:22;18.70;99.90
42421;DHT22;28063;48.140;11.588;2022-08-19T01:44:56;18.80;99.90
42421;DHT22;28063;48.140;11.588;2022-08-19T01:47:31;18.80;99.90
42421;DHT22;28063;48.140;11.588;2022-08-19T01:50:25;18.90;99.90
42421;DHT22;28063;48.140;11.588;2022-08-19T03:26:10;18.80;99.90
42421;DHT22;28063;48.140;11.588;2022-08-19T03:28:36;18.90;99.90
42421;DHT22;28063;48.140;11.588;2022-08-19T03:31:07;18.90;99.90
42421;DHT22;28063;48.140;11.588;2022-08-19T03:33:34;18.90;99.90
42421;DHT22;28063;48.140;11.588;2022-08-19T03:36:12;18.90;99.90
42421;DHT22;28063;48.140;11.588;2022-08-19T03:38:46;18.90;99.90
42421;DHT22;28063;48.140;11.588;2022-08-19T03:41:17;18.90;99.90
42421;DHT22;28063;48.140;11.588;2022-08-19T03:43:44;18.90;99.90
42421;DHT22;28063;48.140;11.588;2022-08-19T03:46:17;18.90;99.90
42421;DHT22;28063;48.140;11.588;2022-08-19T03:48:47;18.90;99.90
42421;DHT22;28063;48.140;11.588;2022-08-19T03:53:48;18.90;99.90
42421;DHT22;28063;48.140;11.588;2022-08-19T03:56:15;19.00;99.90
42421;DHT22;28063;48.140;11.588;2022-08-19T03:58:41;19.00;99.90
42421;DHT22;28063;48.140;11.588;2022-08-19T04:01:12;19.10;99.90
42421;DHT22;28063;48.140;11.588;2022-08-19T04:03:38;19.10;99.90
42421;DHT22;28063;48.140;11.588;2022-08-19T04:08:39;19.10;99.90
42421;DHT22;28063;48.140;11.588;2022-08-19T04:11:13;19.10;99.90
42421;DHT22;28063;48.140;11.588;2022-08-19T04:13:39;19.10;99.90
42421;DHT22;28063;48.140;11.588;2022-08-19T04:16:05;19.10;99.90
42421;DHT22;28063;48.140;11.588;2022-08-19T04:18:33;19.10;99.90
42421;DHT22;28063;48.140;11.588;2022-08-19T04:20:59;19.10;99.90
42421;DHT22;28063;48.140;11.588;2022-08-19T04:23:25;19.10;99.90
42421;DHT22;28063;48.140;11.588;2022-08-19T04:25:53;19.10;99.90
42421;DHT22;28063;48.140;11.588;2022-08-19T04:28:19;19.10;99.90
42421;DHT22;28063;48.140;11.588;2022-08-19T04:30:47;19.20;99.90
42421;DHT22;28063;48.140;11.588;2022-08-19T04:33:15;19.30;99.90
42421;DHT22;28063;48.140;11.588;2022-08-19T04:35:44;19.20;99.90
42421;DHT22;28063;48.140;11.588;2022-08-19T04:38:11;19.20;99.90
42421;DHT22;28063;48.140;11.588;2022-08-19T04:40:45;19.10;99.90
42421;DHT22;28063;48.140;11.588;2022-08-19T04:43:30;19.10;99.90
42421;DHT22;28063;48.140;11.588;2022-08-19T04:45:55;19.10;99.90
42421;DHT22;28063;48.140;11.588;2022-08-19T04:48:21;19.10;99.90
42421;DHT22;28063;48.140;11.588;2022-08-19T04:50:53;19.10;99.90
42421;DHT22;28063;48.140;11.588;2022-08-19T04:53:26;19.10;99.90
42421;DHT22;28063;48.140;11.588;2022-08-19T04:55:58;19.10;99.90
42421;DHT22;28063;48.140;11.588;2022-08-19T04:58:25;19.10;99.90
42421;DHT22;28063;48.140;11.588;2022-08-19T05:00:51;19.10;99.90
42421;DHT22;28063;48.140;11.588;2022-08-19T05:03:17;19.20;99.90
42421;DHT22;28063;48.140;11.588;2022-08-19T05:05:44;19.20;99.90
42421;DHT22;28063;48.140;11.588;2022-08-19T05:08:12;19.20;99.90
42421;DHT22;28063;48.140;11.588;2022-08-19T05:10:38;19.20;99.90
42421;DHT22;28063;48.140;11.588;2022-08-19T05:13:04;19.20;99.90
42421;DHT22;28063;48.140;11.588;2022-08-19T05:15:31;19.30;99.90
42421;DHT22;28063;48.140;11.588;2022-08-19T05:17:57;19.30;99.90
42421;DHT22;28063;48.140;11.588;2022-08-19T05:20:44;19.30;99.90
42421;DHT22;28063;48.140;11.588;2022-08-19T05:23:31;19.30;99.90
42421;DHT22;28063;48.140;11.588;2022-08-19T05:25:57;19.20;99.90
42421;DHT22;28063;48.140;11.588;2022-08-19T05:28:22;19.20;99.90
42421;DHT22;28063;48.140;11.588;2022-08-19T05:30:48;19.10;99.90
42421;DHT22;28063;48.140;11.588;2022-08-19T05:33:16;19.20;99.90
42421;DHT22;28063;48.140;11.588;2022-08-19T05:35:42;19.10;99.90
42421;DHT22;28063;48.140;11.588;2022-08-19T05:38:10;19.10;99.90
42421;DHT22;28063;48.140;11.588;2022-08-19T05:40:37;19.20;99.90
42421;DHT22;28063;48.140;11.588;2022-08-19T05:43:05;19.20;99.90
42421;DHT22;28063;48.140;11.588;2022-08-19T05:45:31;19.20;99.90
42421;DHT22;28063;48.140;11.588;2022-08-19T05:47:57;19.20;99.90
42421;DHT22;28063;48.140;11.588;2022-08-19T05:50:24;19.20;99.90
42421;DHT22;28063;48.140;11.588;2022-08-19T05:52:52;19.20;99.90
42421;DHT22;28063;48.140;11.588;2022-08-19T05:55:18;19.10;99.90
42421;DHT22;28063;48.140;11.588;2022-08-19T05:57:46;19.10;99.90
42421;DHT22;28063;48.140;11.588;2022-08-19T06:00:12;19.10;99.90
42421;DHT22;28063;48.140;11.588;2022-08-19T06:02:39;19.10;99.90
42421;DHT22;28063;48.140;11.588;2022-08-19T06:05:08;19.10;99.90
42421;DHT22;28063;48.140;11.588;2022-08-19T06:07:36;19.20;99.90
42421;DHT22;28063;48.140;11.588;2022-08-19T06:10:04;19.20;99.90
42421;DHT22;28063;48.140;11.588;2022-08-19T06:12:34;19.20;99.90
42421;DHT22;28063;48.140;11.588;2022-08-19T06:15:06;19.20;99.90
42421;DHT22;28063;48.140;11.588;2022-08-19T06:17:32;19.20;99.90
42421;DHT22;28063;48.140;11.588;2022-08-19T06:20:00;19.20;99.90
42421;DHT22;28063;48.140;11.588;2022-08-19T06:22:26;19.20;99.90
42421;DHT22;28063;48.140;11.588;2022-08-19T06:24:53;19.20;99.90
42421;DHT22;28063;48.140;11.588;2022-08-19T06:27:19;19.20;99.90
42421;DHT22;28063;48.140;11.588;2022-08-19T06:29:45;19.20;99.90
42421;DHT22;28063;48.140;11.588;2022-08-19T06:32:14;19.20;99.90
42421;DHT22;28063;48.140;11.588;2022-08-19T06:34:40;19.20;99.90
42421;DHT22;28063;48.140;11.588;2022-08-19T06:37:06;19.20;99.90
42421;DHT22;28063;48.140;11.588;2022-08-19T06:39:37;19.20;99.90
42421;DHT22;28063;48.140;11.588;2022-08-19T06:42:06;19.20;99.90
42421;DHT22;28063;48.140;11.588;2022-08-19T06:44:36;19.30;99.90
42421;DHT22;28063;48.140;11.588;2022-08-19T06:47:07;19.40;99.90
42421;DHT22;28063;48.140;11.588;2022-08-19T06:49:36;19.40;99.90
42421;DHT22;28063;48.140;11.588;2022-08-19T06:52:06;19.40;99.90
42421;DHT22;28063;48.140;11.588;2022-08-19T06:54:34;19.30;99.90
42421;DHT22;28063;48.140;11.588;2022-08-19T06:57:02;19.20;99.90
42421;DHT22;28063;48.140;11.588;2022-08-19T06:59:29;19.20;99.90
42421;DHT22;28063;48.140;11.588;2022-08-19T07:02:00;19.20;99.90
42421;DHT22;28063;48.140;11.588;2022-08-19T07:04:29;19.20;99.90
42421;DHT22;28063;48.140;11.588;2022-08-19T07:07:14;19.20;99.90
42421;DHT22;28063;48.140;11.588;2022-08-19T07:09:42;19.20;99.90
42421;DHT22;28063;48.140;11.588;2022-08-19T07:12:10;19.10;99.90
42421;DHT22;28063;48.140;11.588;2022-08-19T07:14:38;19.20;99.90
42421;DHT22;28063;48.140;11.588;2022-08-19T07:17:09;19.20;99.90
42421;DHT22;28063;48.140;11.588;2022-08-19T07:19:36;19.30;99.90
42421;DHT22;28063;48.140;11.588;2022-08-19T07:22:06;19.50;99.90
42421;DHT22;28063;48.140;11.588;2022-08-19T07:24:44;19.80;99.90
42421;DHT22;28063;48.140;11.588;2022-08-19T07:27:10;19.90;99.90
42421;DHT22;28063;48.140;11.588;2022-08-19T07:29:54;20.00;99.90
42421;DHT22;28063;48.140;11.588;2022-08-19T07:32:20;20.20;99.90
42421;DHT22;28063;48.140;11.588;2022-08-19T07:34:46;20.30;99.90
42421;DHT22;28063;48.140;11.588;2022-08-19T07:37:12;20.50;99.90
42421;DHT22;28063;48.140;11.588;2022-08-19T07:39:39;20.60;99.90
42421;DHT22;28063;48.140;11.588;2022-08-19T07:42:08;20.70;99.90
42421;DHT22;28063;48.140;11.588;2022-08-19T07:44:36;20.90;99.90
42421;DHT22;28063;48.140;11.588;2022-08-19T07:47:06;20.90;99.90
42421;DHT22;28063;48.140;11.588;2022-08-19T07:49:35;20.90;99.90
42421;DHT22;28063;48.140;11.588;2022-08-19T07:52:07;20.80;99.90
42421;DHT22;28063;48.140;11.588;2022-08-19T07:54:35;20.80;99.90
42421;DHT22;28063;48.140;11.588;2022-08-19T07:57:10;20.70;99.90
42421;DHT22;28063;48.140;11.588;2022-08-19T07:59:42;20.70;99.90
42421;DHT22;28063;48.140;11.588;2022-08-19T08:02:09;20.60;99.90
42421;DHT22;28063;48.140;11.588;2022-08-19T08:08:19;20.60;99.90
42421;DHT22;28063;48.140;11.588;2022-08-19T08:10:57;20.60;99.90
42421;DHT22;28063;48.140;11.588;2022-08-19T08:13:23;20.60;99.90
42421;DHT22;28063;48.140;11.588;2022-08-19T08:15:49;20.40;99.90
42421;DHT22;28063;48.140;11.588;2022-08-19T08:18:15;20.40;99.90
42421;DHT22;28063;48.140;11.588;2022-08-19T08:20:41;20.30;99.90
42421;DHT22;28063;48.140;11.588;2022-08-19T08:23:06;20.20;99.90
42421;DHT22;28063;48.140;11.588;2022-08-19T08:25:48;20.10;99.90
42421;DHT22;28063;48.140;11.588;2022-08-19T08:28:15;20.00;99.90
42421;DHT22;28063;48.140;11.588;2022-08-19T08:30:41;20.00;99.90
42421;DHT22;28063;48.140;11.588;2022-08-19T08:33:07;20.00;99.90
42421;DHT22;28063;48.140;11.588;2022-08-19T08:35:33;20.00;99.90
42421;DHT22;28063;48.140;11.588;2022-08-19T08:37:59;20.00;99.90
42421;DHT22;28063;48.140;11.588;2022-08-19T08:43:03;20.10;99.90
42421;DHT22;28063;48.140;11.588;2022-08-19T08:45:33;20.10;99.90
42421;DHT22;28063;48.140;11.588;2022-08-19T08:48:15;20.10;99.90
42421;DHT22;28063;48.140;11.588;2022-08-19T08:51:14;20.00;99.90
42421;DHT22;28063;48.140;11.588;2022-08-19T09:00:38;20.00;99.90
42421;DHT22;28063;48.140;11.588;2022-08-19T09:03:27;19.90;99.90
42421;DHT22;28063;48.140;11.588;2022-08-19T09:12:57;20.00;99.90
42421;DHT22;28063;48.140;11.588;2022-08-19T09:15:47;20.00;99.90
42421;DHT22;28063;48.140;11.588;2022-08-19T09:18:14;19.80;99.90
42421;DHT22;28063;48.140;11.588;2022-08-19T09:20:42;19.80;99.90
42421;DHT22;28063;48.140;11.588;2022-08-19T09:27:00;19.80;99.90
42421;DHT22;28063;48.140;11.588;2022-08-19T09:29:26;19.80;99.90
42421;DHT22;28063;48.140;11.588;2022-08-19T09:31:52;19.80;99.90
42421;DHT22;28063;48.140;11.588;2022-08-19T09:34:17;19.80;99.90
42421;DHT22;28063;48.140;11.588;2022-08-19T09:36:45;19.90;99.90
42421;DHT22;28063;48.140;11.588;2022-08-19T09:39:10;20.00;99.90
42421;DHT22;28063;48.140;11.588;2022-08-19T09:41:36;20.10;99.90
42421;DHT22;28063;48.140;11.588;2022-08-19T09:44:02;20.20;99.90
42421;DHT22;28063;48.140;11.588;2022-08-19T09:46:29;20.30;99.90
42421;DHT22;28063;48.140;11.588;2022-08-19T09:48:58;20.30;99.90
42421;DHT22;28063;48.140;11.588;2022-08-19T09:51:26;20.40;99.90
42421;DHT22;28063;48.140;11.588;2022-08-19T09:53:54;20.40;99.90
42421;DHT22;28063;48.140;11.588;2022-08-19T09:56:23;20.50;99.90
42421;DHT22;28063;48.140;11.588;2022-08-19T09:58:49;20.50;99.90
42421;DHT22;28063;48.140;11.588;2022-08-19T10:01:21;20.60;99.90
42421;DHT22;28063;48.140;11.588;2022-08-19T10:03:49;20.70;99.90
42421;DHT22;28063;48.140;11.588;2022-08-19T10:06:15;20.80;99.90
42421;DHT22;28063;48.140;11.588;2022-08-19T10:08:41;20.90;99.90
42421;DHT22;28063;48.140;11.588;2022-08-19T10:11:09;21.00;99.90
42421;DHT22;28063;48.140;11.588;2022-08-19T10:13:35;21.30;99.90
42421;DHT22;28063;48.140;11.588;2022-08-19T10:16:09;21.60;99.90
42421;DHT22;28063;48.140;11.588;2022-08-19T10:21:06;22.40;99.90
42421;DHT22;28063;48.140;11.588;2022-08-19T10:23:38;22.70;99.90
42421;DHT22;28063;48.140;11.588;2022-08-19T10:26:07;23.10;99.60
42421;DHT22;28063;48.140;11.588;2022-08-19T10:28:35;23.50;99.40
42421;DHT22;28063;48.140;11.588;2022-08-19T10:31:06;23.90;98.60
42421;DHT22;28063;48.140;11.588;2022-08-19T10:33:32;24.10;95.60
42421;DHT22;28063;48.140;11.588;2022-08-19T10:36:00;24.10;94.60
42421;DHT22;28063;48.140;11.588;2022-08-19T10:38:26;24.10;92.70
42421;DHT22;28063;48.140;11.588;2022-08-19T10:40:51;23.90;93.10
42421;DHT22;28063;48.140;11.588;2022-08-19T10:43:18;24.00;93.30
42421;DHT22;28063;48.140;11.588;2022-08-19T10:45:51;24.30;92.90
42421;DHT22;28063;48.140;11.588;2022-08-19T10:48:17;24.60;91.00
42421;DHT22;28063;48.140;11.588;2022-08-19T10:50:42;24.80;90.60
42421;DHT22;28063;48.140;11.588;2022-08-19T10:53:27;25.00;88.90
42421;DHT22;28063;48.140;11.588;2022-08-19T10:55:52;25.10;86.80
42421;DHT22;28063;48.140;11.588;2022-08-19T10:58:36;25.00;87.90
42421;DHT22;28063;48.140;11.588;2022-08-19T11:01:02;24.90;88.40
42421;DHT22;28063;48.140;11.588;2022-08-19T11:03:28;24.80;88.30
42421;DHT22;28063;48.140;11.588;2022-08-19T11:06:03;24.80;88.70
42421;DHT22;28063;48.140;11.588;2022-08-19T11:08:30;24.70;87.00
42421;DHT22;28063;48.140;11.588;2022-08-19T11:10:59;24.40;86.90
42421;DHT22;28063;48.140;11.588;2022-08-19T11:13:40;24.00;89.60
42421;DHT22;28063;48.140;11.588;2022-08-19T11:16:15;23.60;90.90
42421;DHT22;28063;48.140;11.588;2022-08-19T11:18:43;23.20;91.60
42421;DHT22;28063;48.140;11.588;2022-08-19T11:21:11;22.90;93.30
42421;DHT22;28063;48.140;11.588;2022-08-19T11:23:37;22.70;94.30
42421;DHT22;28063;48.140;11.588;2022-08-19T11:26:03;22.80;94.20
42421;DHT22;28063;48.140;11.588;2022-08-19T11:28:28;22.90;94.60
42421;DHT22;28063;48.140;11.588;2022-08-19T11:30:54;23.10;93.70
42421;DHT22;28063;48.140;11.588;2022-08-19T11:33:20;23.10;93.20
42421;DHT22;28063;48.140;11.588;2022-08-19T11:35:46;22.90;93.40
42421;DHT22;28063;48.140;11.588;2022-08-19T11:38:11;22.90;94.40
42421;DHT22;28063;48.140;11.588;2022-08-19T11:40:37;23.00;94.90
42421;DHT22;28063;48.140;11.588;2022-08-19T11:43:03;23.40;93.00
42421;DHT22;28063;48.140;11.588;2022-08-19T11:45:30;23.70;92.80
42421;DHT22;28063;48.140;11.588;2022-08-19T11:47:56;24.10;91.20
42421;DHT22;28063;48.140;11.588;2022-08-19T11:50:23;24.30;90.10
42421;DHT22;28063;48.140;11.588;2022-08-19T11:52:49;24.40;90.00
42421;DHT22;28063;48.140;11.588;2022-08-19T11:55:15;24.40;88.10
42421;DHT22;28063;48.140;11.588;2022-08-19T11:57:41;24.20;89.60
42421;DHT22;28063;48.140;11.588;2022-08-19T12:00:09;23.90;88.80
42421;DHT22;28063;48.140;11.588;2022-08-19T12:02:37;23.60;90.30
42421;DHT22;28063;48.140;11.588;2022-08-19T12:05:03;23.40;90.20
42421;DHT22;28063;48.140;11.588;2022-08-19T12:07:29;23.20;91.30
42421;DHT22;28063;48.140;11.588;2022-08-19T12:09:59;23.10;91.30
42421;DHT22;28063;48.140;11.588;2022-08-19T12:12:24;23.00;91.80
42421;DHT22;28063;48.140;11.588;2022-08-19T12:14:51;23.00;92.30
42421;DHT22;28063;48.140;11.588;2022-08-19T12:17:23;23.20;92.20
42421;DHT22;28063;48.140;11.588;2022-08-19T12:19:49;23.40;91.40
42421;DHT22;28063;48.140;11.588;2022-08-19T12:22:14;23.60;90.50
42421;DHT22;28063;48.140;11.588;2022-08-19T12:24:40;23.60;90.30
42421;DHT22;28063;48.140;11.588;2022-08-19T12:27:06;23.50;90.70
42421;DHT22;28063;48.140;11.588;2022-08-19T12:29:31;23.40;90.90
42421;DHT22;28063;48.140;11.588;2022-08-19T12:31:58;23.40;91.30
42421;DHT22;28063;48.140;11.588;2022-08-19T12:34:31;23.50;90.10
42421;DHT22;28063;48.140;11.588;2022-08-19T12:36:58;23.50;90.50
42421;DHT22;28063;48.140;11.588;2022-08-19T12:39:26;23.30;90.60
42421;DHT22;28063;48.140;11.588;2022-08-19T12:41:52;23.30;90.80
42421;DHT22;28063;48.140;11.588;2022-08-19T12:44:18;23.40;90.10
42421;DHT22;28063;48.140;11.588;2022-08-19T12:46:43;23.50;90.80
42421;DHT22;28063;48.140;11.588;2022-08-19T12:49:10;23.60;90.00
42421;DHT22;28063;48.140;11.588;2022-08-19T12:51:35;23.80;90.10
42421;DHT22;28063;48.140;11.588;2022-08-19T12:54:01;24.10;88.80
42421;DHT22;28063;48.140;11.588;2022-08-19T12:56:27;24.50;86.50
42421;DHT22;28063;48.140;11.588;2022-08-19T12:58:53;24.90;85.90
42421;DHT22;28063;48.140;11.588;2022-08-19T13:01:19;25.50;83.60
42421;DHT22;28063;48.140;11.588;2022-08-19T13:03:46;25.70;81.60
42421;DHT22;28063;48.140;11.588;2022-08-19T13:06:12;25.70;78.80
42421;DHT22;28063;48.140;11.588;2022-08-19T13:08:38;25.50;78.70
42421;DHT22;28063;48.140;11.588;2022-08-19T13:11:12;25.40;78.70
42421;DHT22;28063;48.140;11.588;2022-08-19T13:13:40;25.60;77.90
42421;DHT22;28063;48.140;11.588;2022-08-19T13:16:08;25.80;77.70
42421;DHT22;28063;48.140;11.588;2022-08-19T13:18:34;26.20;76.50
42421;DHT22;28063;48.140;11.588;2022-08-19T13:21:08;26.50;75.10
42421;DHT22;28063;48.140;11.588;2022-08-19T13:23:40;26.70;73.80
42421;DHT22;28063;48.140;11.588;2022-08-19T13:26:07;27.00;71.80
42421;DHT22;28063;48.140;11.588;2022-08-19T13:28:34;26.70;71.30
42421;DHT22;28063;48.140;11.588;2022-08-19T13:31:21;26.30;72.90
42421;DHT22;28063;48.140;11.588;2022-08-19T13:34:05;26.10;73.20
42421;DHT22;28063;48.140;11.588;2022-08-19T13:36:32;25.90;74.30
42421;DHT22;28063;48.140;11.588;2022-08-19T13:38:58;26.00;74.50
42421;DHT22;28063;48.140;11.588;2022-08-19T13:41:25;26.20;73.90
42421;DHT22;28063;48.140;11.588;2022-08-19T13:43:51;26.10;74.10
42421;DHT22;28063;48.140;11.588;2022-08-19T13:46:16;25.90;74.80
42421;DHT22;28063;48.140;11.588;2022-08-19T13:48:42;25.80;76.50
42421;DHT22;28063;48.140;11.588;2022-08-19T13:51:08;25.70;76.60
42421;DHT22;28063;48.140;11.588;2022-08-19T13:53:37;26.00;76.50
42421;DHT22;28063;48.140;11.588;2022-08-19T13:56:08;26.10;74.90
42421;DHT22;28063;48.140;11.588;2022-08-19T13:58:35;25.70;75.90
42421;DHT22;28063;48.140;11.588;2022-08-19T14:01:01;25.10;78.10
42421;DHT22;28063;48.140;11.588;2022-08-19T14:03:27;24.80;80.10
42421;DHT22;28063;48.140;11.588;2022-08-19T14:05:53;24.60;80.90
42421;DHT22;28063;48.140;11.588;2022-08-19T14:08:19;24.60;80.60
42421;DHT22;28063;48.140;11.588;2022-08-19T14:10:45;24.50;80.70
42421;DHT22;28063;48.140;11.588;2022-08-19T14:13:18;24.40;81.80
42421;DHT22;28063;48.140;11.588;2022-08-19T14:15:44;24.30;83.00
42421;DHT22;28063;48.140;11.588;2022-08-19T14:18:11;24.40;82.60
42421;DHT22;28063;48.140;11.588;2022-08-19T14:20:37;24.40;82.00
42421;DHT22;28063;48.140;11.588;2022-08-19T14:23:03;24.20;82.80
42421;DHT22;28063;48.140;11.588;2022-08-19T14:25:31;24.50;83.30
42421;DHT22;28063;48.140;11.588;2022-08-19T14:27:57;24.90;81.30
42421;DHT22;28063;48.140;11.588;2022-08-19T14:30:26;25.40;79.80
42421;DHT22;28063;48.140;11.588;2022-08-19T14:32:57;25.60;76.90
42421;DHT22;28063;48.140;11.588;2022-08-19T14:35:29;25.20;77.50
42421;DHT22;28063;48.140;11.588;2022-08-19T14:37:56;24.80;79.60
42421;DHT22;28063;48.140;11.588;2022-08-19T14:40:26;24.40;80.90
42421;DHT22;28063;48.140;11.588;2022-08-19T14:42:54;24.10;82.80
42421;DHT22;28063;48.140;11.588;2022-08-19T14:45:26;23.90;84.30
42421;DHT22;28063;48.140;11.588;2022-08-19T14:47:52;23.80;84.20
42421;DHT22;28063;48.140;11.588;2022-08-19T14:50:18;23.90;84.60
42421;DHT22;28063;48.140;11.588;2022-08-19T14:52:46;23.90;84.30
42421;DHT22;28063;48.140;11.588;2022-08-19T14:55:14;23.60;84.50
42421;DHT22;28063;48.140;11.588;2022-08-19T14:57:42;23.40;85.60
42421;DHT22;28063;48.140;11.588;2022-08-19T15:00:09;23.20;87.10
42421;DHT22;28063;48.140;11.588;2022-08-19T15:02:38;23.00;88.30
42421;DHT22;28063;48.140;11.588;2022-08-19T15:05:05;22.80;89.50
42421;DHT22;28063;48.140;11.588;2022-08-19T15:07:31;22.80;89.60
42421;DHT22;28063;48.140;11.588;2022-08-19T15:09:57;23.00;89.10
42421;DHT22;28063;48.140;11.588;2022-08-19T15:12:23;23.30;87.80
42421;DHT22;28063;48.140;11.588;2022-08-19T15:14:49;23.60;86.50
42421;DHT22;28063;48.140;11.588;2022-08-19T15:17:18;24.10;84.60
42421;DHT22;28063;48.140;11.588;2022-08-19T15:19:44;24.30;83.70
42421;DHT22;28063;48.140;11.588;2022-08-19T15:22:11;24.60;83.10
42421;DHT22;28063;48.140;11.588;2022-08-19T15:24:37;24.60;81.90
42421;DHT22;28063;48.140;11.588;2022-08-19T15:29:43;24.00;82.60
42421;DHT22;28063;48.140;11.588;2022-08-19T15:32:10;23.30;84.30
42421;DHT22;28063;48.140;11.588;2022-08-19T15:34:36;22.80;87.40
42421;DHT22;28063;48.140;11.588;2022-08-19T15:37:02;22.40;90.20
42421;DHT22;28063;48.140;11.588;2022-08-19T15:39:31;21.90;92.90
42421;DHT22;28063;48.140;11.588;2022-08-19T15:41:57;21.30;95.50
42421;DHT22;28063;48.140;11.588;2022-08-19T15:44:25;20.90;98.50
42421;DHT22;28063;48.140;11.588;2022-08-19T15:46:50;20.40;99.90
42421;DHT22;28063;48.140;11.588;2022-08-19T15:49:17;20.10;99.90
42421;DHT22;28063;48.140;11.588;2022-08-19T15:51:45;20.00;99.90
42421;DHT22;28063;48.140;11.588;2022-08-19T15:54:15;19.90;99.90
42421;DHT22;28063;48.140;11.588;2022-08-19T15:56:42;20.00;99.90
42421;DHT22;28063;48.140;11.588;2022-08-19T15:59:26;20.00;99.90
42421;DHT22;28063;48.140;11.588;2022-08-19T16:02:11;20.10;99.90
42421;DHT22;28063;48.140;11.588;2022-08-19T16:04:55;20.20;99.90
42421;DHT22;28063;48.140;11.588;2022-08-19T16:07:39;20.30;99.90
42421;DHT22;28063;48.140;11.588;2022-08-19T16:10:06;20.30;99.90
42421;DHT22;28063;48.140;11.588;2022-08-19T16:12:32;20.30;99.90
42421;DHT22;28063;48.140;11.588;2022-08-19T16:14:58;20.40;99.90
42421;DHT22;28063;48.140;11.588;2022-08-19T16:17:24;20.50;99.90
42421;DHT22;28063;48.140;11.588;2022-08-19T16:19:50;20.80;99.90
42421;DHT22;28063;48.140;11.588;2022-08-19T16:22:16;21.10;99.90
42421;DHT22;28063;48.140;11.588;2022-08-19T16:24:41;21.50;99.90
42421;DHT22;28063;48.140;11.588;2022-08-19T16:27:07;21.70;99.90
42421;DHT22;28063;48.140;11.588;2022-08-19T16:29:33;21.80;99.90
42421;DHT22;28063;48.140;11.588;2022-08-19T16:32:05;21.70;99.90
42421;DHT22;28063;48.140;11.588;2022-08-19T16:35:04;21.50;99.90
42421;DHT22;28063;48.140;11.588;2022-08-19T16:38:08;21.30;99.90
42421;DHT22;28063;48.140;11.588;2022-08-19T16:40:34;21.30;99.90
42421;DHT22;28063;48.140;11.588;2022-08-19T16:43:00;21.40;99.90
42421;DHT22;28063;48.140;11.588;2022-08-19T16:45:27;21.40;99.90
42421;DHT22;28063;48.140;11.588;2022-08-19T16:47:53;21.40;99.90
42421;DHT22;28063;48.140;11.588;2022-08-19T16:50:21;21.40;99.90
42421;DHT22;28063;48.140;11.588;2022-08-19T16:52:47;21.50;99.90
42421;DHT22;28063;48.140;11.588;2022-08-19T16:55:13;21.60;99.80
42421;DHT22;28063;48.140;11.588;2022-08-19T16:57:39;21.60;99.90
42421;DHT22;28063;48.140;11.588;2022-08-19T17:00:06;21.70;99.90
42421;DHT22;28063;48.140;11.588;2022-08-19T17:02:37;21.60;99.30
42421;DHT22;28063;48.140;11.588;2022-08-19T17:05:05;21.60;99.50
42421;DHT22;28063;48.140;11.588;2022-08-19T17:07:32;21.50;99.80
42421;DHT22;28063;48.140;11.588;2022-08-19T17:10:00;21.40;99.50
42421;DHT22;28063;48.140;11.588;2022-08-19T17:12:29;21.40;99.60
42421;DHT22;28063;48.140;11.588;2022-08-19T17:14:55;21.40;99.40
42421;DHT22;28063;48.140;11.588;2022-08-19T17:17:21;21.20;99.90
42421;DHT22;28063;48.140;11.588;2022-08-19T17:19:47;21.10;99.90
42421;DHT22;28063;48.140;11.588;2022-08-19T17:22:26;20.90;99.90
42421;DHT22;28063;48.140;11.588;2022-08-19T17:24:52;20.80;99.90
42421;DHT22;28063;48.140;11.588;2022-08-19T17:27:18;20.60;99.90
42421;DHT22;28063;48.140;11.588;2022-08-19T17:29:44;20.60;99.90
42421;DHT22;28063;48.140;11.588;2022-08-19T17:32:10;20.40;99.90
42421;DHT22;28063;48.140;11.588;2022-08-19T17:34:36;20.40;99.90
42421;DHT22;28063;48.140;11.588;2022-08-19T17:37:02;20.40;99.90
42421;DHT22;28063;48.140;11.588;2022-08-19T17:39:28;20.30;99.90
42421;DHT22;28063;48.140;11.588;2022-08-19T17:41:54;20.30;99.90
42421;DHT22;28063;48.140;11.588;2022-08-19T17:44:19;20.20;99.90
42421;DHT22;28063;48.140;11.588;2022-08-19T17:46:45;20.20;99.90
42421;DHT22;28063;48.140;11.588;2022-08-19T17:49:11;20.10;99.90
42421;DHT22;28063;48.140;11.588;2022-08-19T17:51:44;20.10;99.90